North Anson, Maine
Current Conditions -  °F | °C
As of 2:55 AM on Thursday 23 Oct 2014 (Local Time) from KWVL Reporting Station
Overcast Overcast  
Wind Chill: 37°   Ceiling: 600
Heat Index: 45°   Visibility: 4mi
Dew Point: 39°   Wind: 16mph
Humidity: 81%   Direction: 30°NNE
Pressure: 29.96"   Gusts: 28mph
Location:  44.85°N, 69.9°W
Report Text: KWVL 230655Z 03014G24KT 4SM OVC006 07/04 A2996 RMK AO1
Loading
Personal Weather Stations






























Interactive Weather Map
Tropical Storm Tracking
New forecast layout! Learn more

10-Day Weather Forecast

Advertisements
Track Severe Weather on mobile